sensor_id;sensor_type;location;lat;lon;timestamp;P1;durP1;ratioP1;P2;durP2;ratioP2
22829;SDS011;11581;51.250;6.778;2022-09-09T00:00:45;2.95;;;0.40;;
22829;SDS011;11581;51.250;6.778;2022-09-09T00:03:18;1.70;;;0.40;;
22829;SDS011;11581;51.250;6.778;2022-09-09T00:05:52;1.35;;;0.30;;
22829;SDS011;11581;51.250;6.778;2022-09-09T00:08:28;0.93;;;0.40;;
22829;SDS011;11581;51.250;6.778;2022-09-09T00:11:03;1.40;;;0.50;;
22829;SDS011;11581;51.250;6.778;2022-09-09T00:13:33;1.27;;;0.32;;
22829;SDS011;11581;51.250;6.778;2022-09-09T00:16:03;0.95;;;0.35;;
22829;SDS011;11581;51.250;6.778;2022-09-09T00:18:47;1.85;;;0.57;;
22829;SDS011;11581;51.250;6.778;2022-09-09T00:21:20;3.00;;;0.60;;
22829;SDS011;11581;51.250;6.778;2022-09-09T00:23:52;0.90;;;0.37;;
22829;SDS011;11581;51.250;6.778;2022-09-09T00:26:24;1.98;;;0.73;;
22829;SDS011;11581;51.250;6.778;2022-09-09T00:29:00;1.20;;;0.22;;
22829;SDS011;11581;51.250;6.778;2022-09-09T00:31:31;2.20;;;0.55;;
22829;SDS011;11581;51.250;6.778;2022-09-09T00:34:00;2.90;;;0.60;;
22829;SDS011;11581;51.250;6.778;2022-09-09T00:36:33;0.68;;;0.30;;
22829;SDS011;11581;51.250;6.778;2022-09-09T00:39:02;2.15;;;0.60;;
22829;SDS011;11581;51.250;6.778;2022-09-09T00:41:34;1.88;;;0.52;;
22829;SDS011;11581;51.250;6.778;2022-09-09T00:44:16;4.07;;;0.65;;
22829;SDS011;11581;51.250;6.778;2022-09-09T00:46:56;1.20;;;0.50;;
22829;SDS011;11581;51.250;6.778;2022-09-09T00:49:44;3.00;;;0.93;;
22829;SDS011;11581;51.250;6.778;2022-09-09T00:52:25;3.10;;;0.70;;
22829;SDS011;11581;51.250;6.778;2022-09-09T00:55:02;2.42;;;0.55;;
22829;SDS011;11581;51.250;6.778;2022-09-09T00:57:32;1.70;;;0.50;;
22829;SDS011;11581;51.250;6.778;2022-09-09T01:00:16;2.20;;;0.50;;
22829;SDS011;11581;51.250;6.778;2022-09-09T01:02:52;2.65;;;0.75;;
22829;SDS011;11581;51.250;6.778;2022-09-09T01:05:33;3.40;;;0.70;;
22829;SDS011;11581;51.250;6.778;2022-09-09T01:08:11;1.17;;;0.50;;
22829;SDS011;11581;51.250;6.778;2022-09-09T01:10:50;1.63;;;0.70;;
22829;SDS011;11581;51.250;6.778;2022-09-09T01:13:24;2.38;;;0.70;;
22829;SDS011;11581;51.250;6.778;2022-09-09T01:15:56;2.10;;;0.68;;
22829;SDS011;11581;51.250;6.778;2022-09-09T01:18:26;3.03;;;1.15;;
22829;SDS011;11581;51.250;6.778;2022-09-09T01:21:01;2.13;;;0.80;;
22829;SDS011;11581;51.250;6.778;2022-09-09T01:23:52;2.90;;;0.60;;
22829;SDS011;11581;51.250;6.778;2022-09-09T01:26:41;1.70;;;0.80;;
22829;SDS011;11581;51.250;6.778;2022-09-09T01:29:17;1.88;;;0.63;;
22829;SDS011;11581;51.250;6.778;2022-09-09T01:31:52;1.70;;;0.40;;
22829;SDS011;11581;51.250;6.778;2022-09-09T01:34:21;2.30;;;0.57;;
22829;SDS011;11581;51.250;6.778;2022-09-09T01:36:49;3.58;;;0.70;;
22829;SDS011;11581;51.250;6.778;2022-09-09T01:39:23;2.05;;;0.65;;
22829;SDS011;11581;51.250;6.778;2022-09-09T01:42:14;4.68;;;0.60;;
22829;SDS011;11581;51.250;6.778;2022-09-09T01:44:44;3.58;;;0.60;;
22829;SDS011;11581;51.250;6.778;2022-09-09T01:47:12;1.75;;;0.60;;
22829;SDS011;11581;51.250;6.778;2022-09-09T01:49:58;1.52;;;0.45;;
22829;SDS011;11581;51.250;6.778;2022-09-09T01:52:28;1.48;;;0.57;;
22829;SDS011;11581;51.250;6.778;2022-09-09T01:54:56;1.25;;;0.43;;
22829;SDS011;11581;51.250;6.778;2022-09-09T01:57:30;2.80;;;0.68;;
22829;SDS011;11581;51.250;6.778;2022-09-09T02:00:04;1.30;;;0.55;;
22829;SDS011;11581;51.250;6.778;2022-09-09T02:02:44;2.05;;;0.70;;
22829;SDS011;11581;51.250;6.778;2022-09-09T02:05:28;3.00;;;1.00;;
22829;SDS011;11581;51.250;6.778;2022-09-09T02:08:14;2.55;;;0.80;;
22829;SDS011;11581;51.250;6.778;2022-09-09T02:10:54;2.63;;;0.80;;
22829;SDS011;11581;51.250;6.778;2022-09-09T02:13:41;2.53;;;0.90;;
22829;SDS011;11581;51.250;6.778;2022-09-09T02:16:12;3.22;;;1.00;;
22829;SDS011;11581;51.250;6.778;2022-09-09T02:18:46;2.47;;;0.90;;
22829;SDS011;11581;51.250;6.778;2022-09-09T02:21:23;2.63;;;0.95;;
22829;SDS011;11581;51.250;6.778;2022-09-09T02:23:53;3.17;;;0.82;;
22829;SDS011;11581;51.250;6.778;2022-09-09T02:26:26;3.20;;;1.15;;
22829;SDS011;11581;51.250;6.778;2022-09-09T02:29:04;2.83;;;0.70;;
22829;SDS011;11581;51.250;6.778;2022-09-09T02:31:35;2.60;;;0.73;;
22829;SDS011;11581;51.250;6.778;2022-09-09T02:34:08;2.65;;;0.70;;
22829;SDS011;11581;51.250;6.778;2022-09-09T02:36:37;2.03;;;0.70;;
22829;SDS011;11581;51.250;6.778;2022-09-09T02:39:07;3.15;;;0.80;;
22829;SDS011;11581;51.250;6.778;2022-09-09T02:41:38;2.13;;;0.63;;
22829;SDS011;11581;51.250;6.778;2022-09-09T02:44:10;3.10;;;0.88;;
22829;SDS011;11581;51.250;6.778;2022-09-09T02:46:45;2.92;;;0.60;;
22829;SDS011;11581;51.250;6.778;2022-09-09T02:49:27;1.98;;;0.65;;
22829;SDS011;11581;51.250;6.778;2022-09-09T02:52:11;3.58;;;0.80;;
22829;SDS011;11581;51.250;6.778;2022-09-09T02:54:42;3.17;;;0.80;;
22829;SDS011;11581;51.250;6.778;2022-09-09T02:57:12;2.97;;;0.60;;
22829;SDS011;11581;51.250;6.778;2022-09-09T02:59:51;4.68;;;1.02;;
22829;SDS011;11581;51.250;6.778;2022-09-09T03:02:18;3.72;;;1.10;;
22829;SDS011;11581;51.250;6.778;2022-09-09T03:04:50;4.28;;;0.70;;
22829;SDS011;11581;51.250;6.778;2022-09-09T03:07:18;2.80;;;0.70;;
22829;SDS011;11581;51.250;6.778;2022-09-09T03:09:47;2.90;;;0.90;;
22829;SDS011;11581;51.250;6.778;2022-09-09T03:12:14;0.82;;;0.50;;
22829;SDS011;11581;51.250;6.778;2022-09-09T03:14:41;2.15;;;0.70;;
22829;SDS011;11581;51.250;6.778;2022-09-09T03:17:12;4.05;;;0.80;;
22829;SDS011;11581;51.250;6.778;2022-09-09T03:19:46;2.53;;;0.75;;
22829;SDS011;11581;51.250;6.778;2022-09-09T03:22:15;3.95;;;0.90;;
22829;SDS011;11581;51.250;6.778;2022-09-09T03:24:44;4.00;;;0.70;;
22829;SDS011;11581;51.250;6.778;2022-09-09T03:27:12;3.58;;;0.90;;
22829;SDS011;11581;51.250;6.778;2022-09-09T03:29:40;3.67;;;0.75;;
22829;SDS011;11581;51.250;6.778;2022-09-09T03:32:13;3.25;;;0.70;;
22829;SDS011;11581;51.250;6.778;2022-09-09T03:34:42;2.97;;;0.70;;
22829;SDS011;11581;51.250;6.778;2022-09-09T03:37:12;2.28;;;1.17;;
22829;SDS011;11581;51.250;6.778;2022-09-09T03:39:39;3.00;;;0.80;;
22829;SDS011;11581;51.250;6.778;2022-09-09T03:42:07;3.15;;;0.88;;
22829;SDS011;11581;51.250;6.778;2022-09-09T03:44:34;4.55;;;0.80;;
22829;SDS011;11581;51.250;6.778;2022-09-09T03:47:01;3.25;;;1.02;;
22829;SDS011;11581;51.250;6.778;2022-09-09T03:49:30;3.22;;;0.82;;
22829;SDS011;11581;51.250;6.778;2022-09-09T03:51:57;5.97;;;1.05;;
22829;SDS011;11581;51.250;6.778;2022-09-09T03:54:24;2.10;;;0.90;;
22829;SDS011;11581;51.250;6.778;2022-09-09T03:56:51;1.55;;;0.70;;
22829;SDS011;11581;51.250;6.778;2022-09-09T03:59:18;3.13;;;1.02;;
22829;SDS011;11581;51.250;6.778;2022-09-09T04:01:46;3.40;;;0.80;;
22829;SDS011;11581;51.250;6.778;2022-09-09T04:04:13;3.13;;;0.70;;
22829;SDS011;11581;51.250;6.778;2022-09-09T04:06:42;1.20;;;0.68;;
22829;SDS011;11581;51.250;6.778;2022-09-09T04:09:08;4.72;;;0.85;;
22829;SDS011;11581;51.250;6.778;2022-09-09T04:11:35;4.93;;;1.00;;
22829;SDS011;11581;51.250;6.778;2022-09-09T04:14:02;3.33;;;1.10;;
22829;SDS011;11581;51.250;6.778;2022-09-09T04:16:31;3.33;;;1.10;;
22829;SDS011;11581;51.250;6.778;2022-09-09T04:18:58;2.88;;;0.95;;
22829;SDS011;11581;51.250;6.778;2022-09-09T04:21:25;5.38;;;1.08;;
22829;SDS011;11581;51.250;6.778;2022-09-09T04:23:54;3.60;;;1.08;;
22829;SDS011;11581;51.250;6.778;2022-09-09T04:26:21;4.65;;;1.10;;
22829;SDS011;11581;51.250;6.778;2022-09-09T04:28:48;4.78;;;0.80;;
22829;SDS011;11581;51.250;6.778;2022-09-09T04:31:18;4.80;;;0.80;;
22829;SDS011;11581;51.250;6.778;2022-09-09T04:33:51;3.35;;;0.82;;
22829;SDS011;11581;51.250;6.778;2022-09-09T04:36:19;6.70;;;1.00;;
22829;SDS011;11581;51.250;6.778;2022-09-09T04:38:48;3.00;;;0.77;;
22829;SDS011;11581;51.250;6.778;2022-09-09T04:41:17;4.40;;;1.27;;
22829;SDS011;11581;51.250;6.778;2022-09-09T04:43:46;5.35;;;1.05;;
22829;SDS011;11581;51.250;6.778;2022-09-09T04:46:14;4.32;;;1.10;;
22829;SDS011;11581;51.250;6.778;2022-09-09T04:48:42;2.60;;;0.90;;
22829;SDS011;11581;51.250;6.778;2022-09-09T04:51:12;3.38;;;1.27;;
22829;SDS011;11581;51.250;6.778;2022-09-09T04:53:42;4.85;;;1.30;;
22829;SDS011;11581;51.250;6.778;2022-09-09T04:56:11;6.18;;;1.33;;
22829;SDS011;11581;51.250;6.778;2022-09-09T04:58:45;2.72;;;0.90;;
22829;SDS011;11581;51.250;6.778;2022-09-09T05:01:15;2.85;;;0.88;;
22829;SDS011;11581;51.250;6.778;2022-09-09T05:03:45;5.60;;;1.33;;
22829;SDS011;11581;51.250;6.778;2022-09-09T05:06:17;4.40;;;1.10;;
22829;SDS011;11581;51.250;6.778;2022-09-09T05:08:47;5.15;;;1.10;;
22829;SDS011;11581;51.250;6.778;2022-09-09T05:11:19;6.30;;;1.13;;
22829;SDS011;11581;51.250;6.778;2022-09-09T05:13:49;3.72;;;1.10;;
22829;SDS011;11581;51.250;6.778;2022-09-09T05:16:17;5.10;;;0.98;;
22829;SDS011;11581;51.250;6.778;2022-09-09T05:18:45;4.70;;;1.10;;
22829;SDS011;11581;51.250;6.778;2022-09-09T05:21:14;3.72;;;1.25;;
22829;SDS011;11581;51.250;6.778;2022-09-09T05:23:44;3.22;;;1.00;;
22829;SDS011;11581;51.250;6.778;2022-09-09T05:26:12;5.38;;;1.38;;
22829;SDS011;11581;51.250;6.778;2022-09-09T05:28:41;5.90;;;1.50;;
22829;SDS011;11581;51.250;6.778;2022-09-09T05:31:09;3.85;;;1.23;;
22829;SDS011;11581;51.250;6.778;2022-09-09T05:33:38;5.40;;;1.67;;
22829;SDS011;11581;51.250;6.778;2022-09-09T05:36:08;4.15;;;1.20;;
22829;SDS011;11581;51.250;6.778;2022-09-09T05:38:39;3.53;;;0.90;;
22829;SDS011;11581;51.250;6.778;2022-09-09T05:41:07;2.58;;;0.93;;
22829;SDS011;11581;51.250;6.778;2022-09-09T05:43:35;6.93;;;1.38;;
22829;SDS011;11581;51.250;6.778;2022-09-09T05:46:04;4.57;;;1.20;;
22829;SDS011;11581;51.250;6.778;2022-09-09T05:48:35;5.05;;;1.20;;
22829;SDS011;11581;51.250;6.778;2022-09-09T05:51:03;6.82;;;1.45;;
22829;SDS011;11581;51.250;6.778;2022-09-09T05:53:33;2.90;;;0.90;;
22829;SDS011;11581;51.250;6.778;2022-09-09T05:56:01;5.20;;;1.30;;
22829;SDS011;11581;51.250;6.778;2022-09-09T05:58:31;5.82;;;1.33;;
22829;SDS011;11581;51.250;6.778;2022-09-09T06:01:05;6.22;;;1.20;;
22829;SDS011;11581;51.250;6.778;2022-09-09T06:03:35;5.03;;;0.90;;
22829;SDS011;11581;51.250;6.778;2022-09-09T06:06:04;3.70;;;1.17;;
22829;SDS011;11581;51.250;6.778;2022-09-09T06:08:34;3.35;;;0.95;;
22829;SDS011;11581;51.250;6.778;2022-09-09T06:11:04;2.28;;;0.70;;
22829;SDS011;11581;51.250;6.778;2022-09-09T06:13:34;4.57;;;1.15;;
22829;SDS011;11581;51.250;6.778;2022-09-09T06:16:05;4.50;;;0.80;;
22829;SDS011;11581;51.250;6.778;2022-09-09T06:18:32;3.35;;;1.20;;
22829;SDS011;11581;51.250;6.778;2022-09-09T06:21:01;2.35;;;1.00;;
22829;SDS011;11581;51.250;6.778;2022-09-09T06:23:30;4.65;;;0.90;;
22829;SDS011;11581;51.250;6.778;2022-09-09T06:26:00;2.33;;;0.80;;
22829;SDS011;11581;51.250;6.778;2022-09-09T06:28:29;4.15;;;0.98;;
22829;SDS011;11581;51.250;6.778;2022-09-09T06:30:58;4.00;;;1.13;;
22829;SDS011;11581;51.250;6.778;2022-09-09T06:33:26;5.53;;;1.35;;
22829;SDS011;11581;51.250;6.778;2022-09-09T06:35:54;4.47;;;1.20;;
22829;SDS011;11581;51.250;6.778;2022-09-09T06:38:24;2.38;;;0.68;;
22829;SDS011;11581;51.250;6.778;2022-09-09T06:40:52;6.43;;;1.10;;
22829;SDS011;11581;51.250;6.778;2022-09-09T06:43:21;6.70;;;1.40;;
22829;SDS011;11581;51.250;6.778;2022-09-09T06:45:53;4.25;;;1.00;;
22829;SDS011;11581;51.250;6.778;2022-09-09T06:48:21;8.32;;;1.50;;
22829;SDS011;11581;51.250;6.778;2022-09-09T06:50:51;4.90;;;1.08;;
22829;SDS011;11581;51.250;6.778;2022-09-09T06:53:19;6.82;;;1.60;;
22829;SDS011;11581;51.250;6.778;2022-09-09T06:55:48;3.85;;;1.08;;
22829;SDS011;11581;51.250;6.778;2022-09-09T06:58:17;4.50;;;1.05;;
22829;SDS011;11581;51.250;6.778;2022-09-09T07:00:44;3.65;;;0.80;;
22829;SDS011;11581;51.250;6.778;2022-09-09T07:03:11;4.72;;;1.10;;
22829;SDS011;11581;51.250;6.778;2022-09-09T07:05:38;3.60;;;0.80;;
22829;SDS011;11581;51.250;6.778;2022-09-09T07:08:05;4.32;;;1.20;;
22829;SDS011;11581;51.250;6.778;2022-09-09T07:10:32;4.22;;;0.95;;
22829;SDS011;11581;51.250;6.778;2022-09-09T07:13:01;4.72;;;1.00;;
22829;SDS011;11581;51.250;6.778;2022-09-09T07:15:29;4.43;;;0.88;;
22829;SDS011;11581;51.250;6.778;2022-09-09T07:18:00;7.07;;;1.20;;
22829;SDS011;11581;51.250;6.778;2022-09-09T07:20:28;5.15;;;1.23;;
22829;SDS011;11581;51.250;6.778;2022-09-09T07:22:55;8.68;;;1.17;;
22829;SDS011;11581;51.250;6.778;2022-09-09T07:25:24;3.05;;;1.02;;
22829;SDS011;11581;51.250;6.778;2022-09-09T07:27:53;3.88;;;1.05;;
22829;SDS011;11581;51.250;6.778;2022-09-09T07:30:21;4.70;;;1.08;;
22829;SDS011;11581;51.250;6.778;2022-09-09T07:32:48;5.13;;;1.25;;
22829;SDS011;11581;51.250;6.778;2022-09-09T07:35:22;3.45;;;0.98;;
22829;SDS011;11581;51.250;6.778;2022-09-09T07:37:49;3.95;;;0.98;;
22829;SDS011;11581;51.250;6.778;2022-09-09T07:40:16;2.20;;;0.60;;
22829;SDS011;11581;51.250;6.778;2022-09-09T07:42:46;2.83;;;0.90;;
22829;SDS011;11581;51.250;6.778;2022-09-09T07:45:14;4.65;;;1.20;;
22829;SDS011;11581;51.250;6.778;2022-09-09T07:47:42;5.32;;;1.23;;
22829;SDS011;11581;51.250;6.778;2022-09-09T07:50:09;4.90;;;1.00;;
22829;SDS011;11581;51.250;6.778;2022-09-09T07:52:38;5.47;;;1.23;;
22829;SDS011;11581;51.250;6.778;2022-09-09T07:55:06;3.53;;;1.00;;
22829;SDS011;11581;51.250;6.778;2022-09-09T07:57:34;6.13;;;1.35;;
22829;SDS011;11581;51.250;6.778;2022-09-09T08:00:02;3.85;;;0.70;;
22829;SDS011;11581;51.250;6.778;2022-09-09T08:02:37;4.13;;;0.93;;
22829;SDS011;11581;51.250;6.778;2022-09-09T08:05:06;6.10;;;1.08;;
22829;SDS011;11581;51.250;6.778;2022-09-09T08:07:35;3.70;;;0.80;;
22829;SDS011;11581;51.250;6.778;2022-09-09T08:10:02;4.78;;;1.00;;
22829;SDS011;11581;51.250;6.778;2022-09-09T08:12:30;3.78;;;0.93;;
22829;SDS011;11581;51.250;6.778;2022-09-09T08:14:59;4.85;;;1.15;;
22829;SDS011;11581;51.250;6.778;2022-09-09T08:17:30;5.22;;;1.05;;
22829;SDS011;11581;51.250;6.778;2022-09-09T08:20:00;2.90;;;0.90;;
22829;SDS011;11581;51.250;6.778;2022-09-09T08:22:32;5.30;;;0.90;;
22829;SDS011;11581;51.250;6.778;2022-09-09T08:24:59;6.00;;;1.27;;
22829;SDS011;11581;51.250;6.778;2022-09-09T08:27:27;3.47;;;0.82;;
22829;SDS011;11581;51.250;6.778;2022-09-09T08:29:55;3.05;;;0.80;;
22829;SDS011;11581;51.250;6.778;2022-09-09T08:32:22;3.38;;;0.90;;
22829;SDS011;11581;51.250;6.778;2022-09-09T08:34:49;2.20;;;0.70;;
22829;SDS011;11581;51.250;6.778;2022-09-09T08:37:19;2.17;;;0.80;;
22829;SDS011;11581;51.250;6.778;2022-09-09T08:39:48;2.90;;;0.70;;
22829;SDS011;11581;51.250;6.778;2022-09-09T08:42:27;2.47;;;0.73;;
22829;SDS011;11581;51.250;6.778;2022-09-09T08:45:24;5.03;;;0.90;;
22829;SDS011;11581;51.250;6.778;2022-09-09T08:48:05;6.68;;;1.00;;
22829;SDS011;11581;51.250;6.778;2022-09-09T08:50:40;3.50;;;0.70;;
22829;SDS011;11581;51.250;6.778;2022-09-09T08:53:15;4.05;;;0.88;;
22829;SDS011;11581;51.250;6.778;2022-09-09T08:55:50;5.57;;;1.08;;
22829;SDS011;11581;51.250;6.778;2022-09-09T08:58:26;2.72;;;0.73;;
22829;SDS011;11581;51.250;6.778;2022-09-09T09:01:02;3.05;;;0.77;;
22829;SDS011;11581;51.250;6.778;2022-09-09T09:03:50;2.85;;;0.60;;
22829;SDS011;11581;51.250;6.778;2022-09-09T09:06:26;2.70;;;0.77;;
22829;SDS011;11581;51.250;6.778;2022-09-09T09:09:11;5.47;;;1.33;;
22829;SDS011;11581;51.250;6.778;2022-09-09T09:11:49;5.53;;;0.70;;
22829;SDS011;11581;51.250;6.778;2022-09-09T09:14:20;5.97;;;0.95;;
22829;SDS011;11581;51.250;6.778;2022-09-09T09:16:51;2.33;;;0.90;;
22829;SDS011;11581;51.250;6.778;2022-09-09T09:19:21;3.40;;;0.93;;
22829;SDS011;11581;51.250;6.778;2022-09-09T09:21:54;6.97;;;0.85;;
22829;SDS011;11581;51.250;6.778;2022-09-09T09:24:30;2.40;;;0.60;;
22829;SDS011;11581;51.250;6.778;2022-09-09T09:27:11;3.08;;;0.75;;
22829;SDS011;11581;51.250;6.778;2022-09-09T09:29:43;4.60;;;0.73;;
22829;SDS011;11581;51.250;6.778;2022-09-09T09:32:13;4.65;;;1.00;;
22829;SDS011;11581;51.250;6.778;2022-09-09T09:34:48;2.60;;;0.70;;
22829;SDS011;11581;51.250;6.778;2022-09-09T09:37:16;8.25;;;0.95;;
22829;SDS011;11581;51.250;6.778;2022-09-09T09:39:53;1.35;;;0.40;;
22829;SDS011;11581;51.250;6.778;2022-09-09T09:42:23;3.72;;;0.68;;
22829;SDS011;11581;51.250;6.778;2022-09-09T09:44:54;3.13;;;0.65;;
22829;SDS011;11581;51.250;6.778;2022-09-09T09:47:22;2.00;;;0.50;;
22829;SDS011;11581;51.250;6.778;2022-09-09T09:50:19;2.20;;;0.60;;
22829;SDS011;11581;51.250;6.778;2022-09-09T09:52:53;5.28;;;0.70;;
22829;SDS011;11581;51.250;6.778;2022-09-09T09:57:52;2.45;;;0.70;;
22829;SDS011;11581;51.250;6.778;2022-09-09T10:00:20;2.65;;;0.50;;
22829;SDS011;11581;51.250;6.778;2022-09-09T10:03:00;2.05;;;0.50;;
22829;SDS011;11581;51.250;6.778;2022-09-09T10:05:32;2.38;;;0.70;;
22829;SDS011;11581;51.250;6.778;2022-09-09T10:08:10;2.05;;;0.52;;
22829;SDS011;11581;51.250;6.778;2022-09-09T10:10:42;1.20;;;0.50;;
22829;SDS011;11581;51.250;6.778;2022-09-09T10:13:20;1.88;;;0.50;;
22829;SDS011;11581;51.250;6.778;2022-09-09T10:15:58;1.52;;;0.45;;
22829;SDS011;11581;51.250;6.778;2022-09-09T10:18:36;1.38;;;0.40;;
22829;SDS011;11581;51.250;6.778;2022-09-09T10:27:27;2.42;;;0.40;;
22829;SDS011;11581;51.250;6.778;2022-09-09T10:30:09;5.47;;;0.90;;
22829;SDS011;11581;51.250;6.778;2022-09-09T10:32:41;1.45;;;0.73;;
22829;SDS011;11581;51.250;6.778;2022-09-09T10:35:26;1.88;;;0.65;;
22829;SDS011;11581;51.250;6.778;2022-09-09T10:38:03;3.45;;;0.70;;
22829;SDS011;11581;51.250;6.778;2022-09-09T10:40:41;3.25;;;0.60;;
22829;SDS011;11581;51.250;6.778;2022-09-09T10:43:20;3.90;;;0.80;;
22829;SDS011;11581;51.250;6.778;2022-09-09T10:45:59;6.15;;;0.75;;
22829;SDS011;11581;51.250;6.778;2022-09-09T10:48:37;2.15;;;0.52;;
22829;SDS011;11581;51.250;6.778;2022-09-09T10:51:22;1.60;;;0.40;;
22829;SDS011;11581;51.250;6.778;2022-09-09T10:54:00;5.20;;;1.88;;
22829;SDS011;11581;51.250;6.778;2022-09-09T10:56:42;3.33;;;1.00;;
22829;SDS011;11581;51.250;6.778;2022-09-09T10:59:15;4.00;;;0.70;;
22829;SDS011;11581;51.250;6.778;2022-09-09T11:04:20;3.88;;;0.63;;
22829;SDS011;11581;51.250;6.778;2022-09-09T11:06:52;1.95;;;0.60;;
22829;SDS011;11581;51.250;6.778;2022-09-09T11:09:21;1.75;;;0.60;;
22829;SDS011;11581;51.250;6.778;2022-09-09T11:11:53;2.60;;;0.88;;
22829;SDS011;11581;51.250;6.778;2022-09-09T11:14:23;3.50;;;0.82;;
22829;SDS011;11581;51.250;6.778;2022-09-09T11:16:57;2.45;;;0.63;;
22829;SDS011;11581;51.250;6.778;2022-09-09T11:19:28;8.10;;;1.00;;
22829;SDS011;11581;51.250;6.778;2022-09-09T11:22:00;3.63;;;0.57;;
22829;SDS011;11581;51.250;6.778;2022-09-09T11:24:31;1.55;;;0.57;;
22829;SDS011;11581;51.250;6.778;2022-09-09T11:27:02;2.22;;;0.60;;
22829;SDS011;11581;51.250;6.778;2022-09-09T11:29:51;1.70;;;0.30;;
22829;SDS011;11581;51.250;6.778;2022-09-09T11:32:37;3.97;;;0.50;;
22829;SDS011;11581;51.250;6.778;2022-09-09T11:35:25;1.65;;;0.32;;
22829;SDS011;11581;51.250;6.778;2022-09-09T11:38:08;3.00;;;0.43;;
22829;SDS011;11581;51.250;6.778;2022-09-09T11:40:43;1.83;;;0.32;;
22829;SDS011;11581;51.250;6.778;2022-09-09T11:43:12;3.17;;;0.70;;
22829;SDS011;11581;51.250;6.778;2022-09-09T11:45:49;1.05;;;0.38;;
22829;SDS011;11581;51.250;6.778;2022-09-09T11:48:24;0.70;;;0.30;;
22829;SDS011;11581;51.250;6.778;2022-09-09T11:50:58;2.10;;;0.38;;
22829;SDS011;11581;51.250;6.778;2022-09-09T11:53:28;1.45;;;0.43;;
22829;SDS011;11581;51.250;6.778;2022-09-09T11:56:02;4.78;;;0.70;;
22829;SDS011;11581;51.250;6.778;2022-09-09T11:58:33;1.27;;;0.35;;
22829;SDS011;11581;51.250;6.778;2022-09-09T12:07:03;1.40;;;0.50;;
22829;SDS011;11581;51.250;6.778;2022-09-09T12:09:36;3.03;;;0.68;;
22829;SDS011;11581;51.250;6.778;2022-09-09T12:12:27;2.25;;;0.55;;
22829;SDS011;11581;51.250;6.778;2022-09-09T12:14:58;1.10;;;0.40;;
22829;SDS011;11581;51.250;6.778;2022-09-09T12:17:28;2.40;;;0.50;;
22829;SDS011;11581;51.250;6.778;2022-09-09T12:20:03;1.75;;;0.60;;
22829;SDS011;11581;51.250;6.778;2022-09-09T12:22:43;1.60;;;0.35;;
22829;SDS011;11581;51.250;6.778;2022-09-09T12:25:23;2.38;;;0.55;;
22829;SDS011;11581;51.250;6.778;2022-09-09T12:28:00;2.42;;;0.47;;
22829;SDS011;11581;51.250;6.778;2022-09-09T12:30:34;1.55;;;0.60;;
22829;SDS011;11581;51.250;6.778;2022-09-09T12:33:11;7.63;;;0.70;;
22829;SDS011;11581;51.250;6.778;2022-09-09T12:35:42;0.95;;;0.30;;
22829;SDS011;11581;51.250;6.778;2022-09-09T12:38:12;1.23;;;0.38;;
22829;SDS011;11581;51.250;6.778;2022-09-09T12:40:41;1.50;;;0.20;;
22829;SDS011;11581;51.250;6.778;2022-09-09T12:43:18;2.00;;;0.47;;
22829;SDS011;11581;51.250;6.778;2022-09-09T12:45:49;1.45;;;0.30;;
22829;SDS011;11581;51.250;6.778;2022-09-09T12:48:24;1.45;;;0.40;;
22829;SDS011;11581;51.250;6.778;2022-09-09T12:50:59;1.40;;;0.50;;
22829;SDS011;11581;51.250;6.778;2022-09-09T12:53:28;1.38;;;0.38;;
22829;SDS011;11581;51.250;6.778;2022-09-09T12:55:59;2.78;;;0.50;;
22829;SDS011;11581;51.250;6.778;2022-09-09T12:58:32;2.92;;;0.50;;
22829;SDS011;11581;51.250;6.778;2022-09-09T13:01:00;2.85;;;0.77;;
22829;SDS011;11581;51.250;6.778;2022-09-09T13:03:30;3.35;;;0.43;;
22829;SDS011;11581;51.250;6.778;2022-09-09T13:06:12;2.05;;;0.60;;
22829;SDS011;11581;51.250;6.778;2022-09-09T13:08:40;2.53;;;0.35;;
22829;SDS011;11581;51.250;6.778;2022-09-09T13:11:09;1.77;;;0.60;;
22829;SDS011;11581;51.250;6.778;2022-09-09T13:13:41;5.30;;;0.70;;
22829;SDS011;11581;51.250;6.778;2022-09-09T13:16:19;9.88;;;0.47;;
22829;SDS011;11581;51.250;6.778;2022-09-09T13:18:48;2.65;;;0.40;;
22829;SDS011;11581;51.250;6.778;2022-09-09T13:21:17;5.38;;;0.60;;
22829;SDS011;11581;51.250;6.778;2022-09-09T13:23:48;5.45;;;0.70;;
22829;SDS011;11581;51.250;6.778;2022-09-09T13:26:21;3.60;;;0.70;;
22829;SDS011;11581;51.250;6.778;2022-09-09T13:28:49;2.92;;;0.65;;
22829;SDS011;11581;51.250;6.778;2022-09-09T13:31:22;3.00;;;0.60;;
22829;SDS011;11581;51.250;6.778;2022-09-09T13:33:52;2.22;;;0.52;;
22829;SDS011;11581;51.250;6.778;2022-09-09T13:36:27;1.77;;;0.45;;
22829;SDS011;11581;51.250;6.778;2022-09-09T13:38:57;4.85;;;0.63;;
22829;SDS011;11581;51.250;6.778;2022-09-09T13:41:28;2.72;;;0.50;;
22829;SDS011;11581;51.250;6.778;2022-09-09T13:43:56;1.52;;;0.55;;
22829;SDS011;11581;51.250;6.778;2022-09-09T13:46:31;1.83;;;0.70;;
22829;SDS011;11581;51.250;6.778;2022-09-09T13:49:02;8.10;;;0.60;;
22829;SDS011;11581;51.250;6.778;2022-09-09T13:52:02;5.13;;;0.57;;
22829;SDS011;11581;51.250;6.778;2022-09-09T13:54:32;2.67;;;0.80;;
22829;SDS011;11581;51.250;6.778;2022-09-09T13:57:00;2.45;;;0.68;;
22829;SDS011;11581;51.250;6.778;2022-09-09T13:59:29;3.30;;;1.00;;
22829;SDS011;11581;51.250;6.778;2022-09-09T14:01:57;5.30;;;1.48;;
22829;SDS011;11581;51.250;6.778;2022-09-09T14:04:24;4.57;;;0.68;;
22829;SDS011;11581;51.250;6.778;2022-09-09T14:06:53;5.05;;;1.00;;
22829;SDS011;11581;51.250;6.778;2022-09-09T14:09:21;6.68;;;0.82;;
22829;SDS011;11581;51.250;6.778;2022-09-09T14:11:48;2.67;;;0.70;;
22829;SDS011;11581;51.250;6.778;2022-09-09T14:14:16;2.45;;;0.90;;
22829;SDS011;11581;51.250;6.778;2022-09-09T14:16:43;1.63;;;0.47;;
22829;SDS011;11581;51.250;6.778;2022-09-09T14:19:09;4.03;;;0.80;;
22829;SDS011;11581;51.250;6.778;2022-09-09T14:21:36;2.30;;;0.55;;
22829;SDS011;11581;51.250;6.778;2022-09-09T14:24:05;1.02;;;0.50;;
22829;SDS011;11581;51.250;6.778;2022-09-09T14:26:32;3.17;;;0.38;;
22829;SDS011;11581;51.250;6.778;2022-09-09T14:28:59;4.00;;;0.93;;
22829;SDS011;11581;51.250;6.778;2022-09-09T14:31:27;2.22;;;0.80;;
22829;SDS011;11581;51.250;6.778;2022-09-09T14:33:54;2.25;;;0.50;;
22829;SDS011;11581;51.250;6.778;2022-09-09T14:36:21;0.10;;;0.10;;
22829;SDS011;11581;51.250;6.778;2022-09-09T14:38:49;5.82;;;1.15;;
22829;SDS011;11581;51.250;6.778;2022-09-09T14:41:19;1.13;;;0.17;;
22829;SDS011;11581;51.250;6.778;2022-09-09T14:43:47;0.20;;;0.10;;
22829;SDS011;11581;51.250;6.778;2022-09-09T14:46:20;0.43;;;0.10;;
22829;SDS011;11581;51.250;6.778;2022-09-09T14:48:58;1.05;;;0.10;;
22829;SDS011;11581;51.250;6.778;2022-09-09T14:51:25;0.28;;;0.00;;
22829;SDS011;11581;51.250;6.778;2022-09-09T14:53:53;1.48;;;0.25;;
22829;SDS011;11581;51.250;6.778;2022-09-09T14:56:24;1.45;;;0.35;;
22829;SDS011;11581;51.250;6.778;2022-09-09T14:58:52;1.88;;;0.10;;
22829;SDS011;11581;51.250;6.778;2022-09-09T15:01:21;1.48;;;0.32;;
22829;SDS011;11581;51.250;6.778;2022-09-09T15:03:49;0.63;;;0.10;;
22829;SDS011;11581;51.250;6.778;2022-09-09T15:06:24;0.90;;;0.20;;
22829;SDS011;11581;51.250;6.778;2022-09-09T15:08:52;0.93;;;0.20;;
22829;SDS011;11581;51.250;6.778;2022-09-09T15:11:25;0.28;;;0.10;;
22829;SDS011;11581;51.250;6.778;2022-09-09T15:13:53;0.35;;;0.20;;
22829;SDS011;11581;51.250;6.778;2022-09-09T15:16:21;1.15;;;0.10;;
22829;SDS011;11581;51.250;6.778;2022-09-09T15:18:50;0.52;;;0.13;;
22829;SDS011;11581;51.250;6.778;2022-09-09T15:21:24;0.82;;;0.20;;
22829;SDS011;11581;51.250;6.778;2022-09-09T15:23:53;1.38;;;0.43;;
22829;SDS011;11581;51.250;6.778;2022-09-09T15:26:20;2.45;;;0.35;;
22829;SDS011;11581;51.250;6.778;2022-09-09T15:28:49;1.83;;;0.30;;
22829;SDS011;11581;51.250;6.778;2022-09-09T15:31:17;2.15;;;0.47;;
22829;SDS011;11581;51.250;6.778;2022-09-09T15:33:48;2.53;;;0.57;;